ASP548 KTEB-CYYZ
Flight info
| Callsign | ASP548 |
|---|---|
| Flight time | 1h 11m |
| Altitude | 40000 |
| Route | GAYEL Q818 WOZEE LINNG3 |
| Aircraft | C25B/M-SDE2E3FGHRWXY/LB1 |
Departure
| Time | 2026-05-09 01:51 |
|---|---|
| Airport | Teterboro Airport (KTEB) |
Arrival
| Time | 2026-05-09 03:03 |
|---|---|
| Airport | Toronto Pearson International Airport (CYYZ) |
| Time | Latitude | Longitude | Altitude | Speed | Heading |
|---|---|---|---|---|---|
| 2026-05-09 01:34 | 40.84282 | -74.06281 | 10 ft | 0 kts | 183° |
| 2026-05-09 01:48 | 40.84272 | -74.06281 | 10 ft | 6 kts | 175° |
| 2026-05-09 01:48 | 40.84243 | -74.06232 | 10 ft | 8 kts | 99° |
| 2026-05-09 01:49 | 40.84226 | -74.06159 | 10 ft | 5 kts | 161° |
| 2026-05-09 01:49 | 40.84184 | -74.06161 | 10 ft | 7 kts | 182° |
| 2026-05-09 01:49 | 40.84126 | -74.06165 | 10 ft | 9 kts | 183° |
| 2026-05-09 01:49 | 40.84053 | -74.06171 | 10 ft | 12 kts | 184° |
| 2026-05-09 01:50 | 40.83967 | -74.06178 | 10 ft | 13 kts | 183° |
| 2026-05-09 01:50 | 40.83895 | -74.06175 | 10 ft | 0 kts | 146° |
| 2026-05-09 01:50 | 40.83881 | -74.06097 | 10 ft | 14 kts | 92° |
| 2026-05-09 01:50 | 40.83911 | -74.06035 | 10 ft | 9 kts | 2° |
| 2026-05-09 01:51 | 40.84314 | -74.06009 | 11 ft | 111 kts | 2° |
| 2026-05-09 01:51 | 40.85248 | -74.05965 | 595 ft | 147 kts | 4° |
| 2026-05-09 01:51 | 40.86275 | -74.05461 | 1459 ft | 171 kts | 30° |
| 2026-05-09 01:51 | 40.87460 | -74.04775 | 2234 ft | 206 kts | 6° |
| 2026-05-09 01:52 | 40.88830 | -74.05325 | 3306 ft | 212 kts | 320° |
| 2026-05-09 01:52 | 40.89590 | -74.07022 | 4383 ft | 225 kts | 281° |
| 2026-05-09 01:52 | 40.89438 | -74.09158 | 5086 ft | 254 kts | 257° |
| 2026-05-09 01:52 | 40.88965 | -74.11556 | 5314 ft | 279 kts | 255° |
| 2026-05-09 01:53 | 40.88471 | -74.13804 | 5992 ft | 245 kts | 254° |
| 2026-05-09 01:53 | 40.87958 | -74.15990 | 6508 ft | 255 kts | 253° |
| 2026-05-09 01:53 | 40.87516 | -74.18225 | 7062 ft | 259 kts | 259° |
| 2026-05-09 01:53 | 40.87469 | -74.20618 | 7606 ft | 265 kts | 277° |
| 2026-05-09 01:54 | 40.88299 | -74.22766 | 8412 ft | 262 kts | 310° |
| 2026-05-09 01:54 | 40.89599 | -74.24239 | 9691 ft | 241 kts | 315° |
| 2026-05-09 01:54 | 40.90944 | -74.25671 | 10008 ft | 258 kts | 317° |
| 2026-05-09 01:54 | 40.92365 | -74.27118 | 10008 ft | 256 kts | 317° |
| 2026-05-09 01:55 | 40.93848 | -74.28392 | 10076 ft | 262 kts | 334° |
| 2026-05-09 01:55 | 40.95661 | -74.28625 | 11207 ft | 252 kts | 347° |
| 2026-05-09 01:55 | 40.97359 | -74.28996 | 12317 ft | 247 kts | 341° |
| 2026-05-09 01:55 | 40.99067 | -74.29314 | 13346 ft | 249 kts | 345° |
| 2026-05-09 01:56 | 41.00800 | -74.29549 | 14272 ft | 250 kts | 344° |
| 2026-05-09 01:56 | 41.02540 | -74.29815 | 15138 ft | 254 kts | 343° |
| 2026-05-09 01:56 | 41.04296 | -74.30081 | 16010 ft | 255 kts | 343° |
| 2026-05-09 01:56 | 41.06065 | -74.30370 | 16839 ft | 258 kts | 343° |
| 2026-05-09 01:57 | 41.07859 | -74.30642 | 17679 ft | 260 kts | 343° |
| 2026-05-09 01:57 | 41.09669 | -74.30911 | 18501 ft | 263 kts | 342° |
| 2026-05-09 01:57 | 41.11494 | -74.31193 | 19278 ft | 265 kts | 342° |
| 2026-05-09 01:57 | 41.13330 | -74.31493 | 20049 ft | 268 kts | 342° |
| 2026-05-09 01:58 | 41.15201 | -74.31765 | 20804 ft | 271 kts | 342° |
| 2026-05-09 01:58 | 41.17056 | -74.32051 | 21533 ft | 273 kts | 342° |
| 2026-05-09 01:58 | 41.18953 | -74.32352 | 22238 ft | 276 kts | 341° |
| 2026-05-09 01:58 | 41.20877 | -74.32647 | 22916 ft | 280 kts | 342° |
| 2026-05-09 01:59 | 41.22814 | -74.32950 | 23619 ft | 281 kts | 341° |
| 2026-05-09 01:59 | 41.24773 | -74.33260 | 24273 ft | 286 kts | 342° |
| 2026-05-09 01:59 | 41.26757 | -74.33547 | 24941 ft | 287 kts | 341° |
| 2026-05-09 01:59 | 41.28754 | -74.33866 | 25553 ft | 291 kts | 341° |
| 2026-05-09 02:00 | 41.30773 | -74.34183 | 26173 ft | 294 kts | 340° |
| 2026-05-09 02:00 | 41.32817 | -74.34499 | 26798 ft | 297 kts | 341° |
| 2026-05-09 02:00 | 41.34844 | -74.34944 | 27362 ft | 292 kts | 333° |
| 2026-05-09 02:00 | 41.36768 | -74.35740 | 27954 ft | 287 kts | 328° |
| 2026-05-09 02:01 | 41.38565 | -74.36850 | 28545 ft | 283 kts | 321° |
| 2026-05-09 02:01 | 41.40191 | -74.38221 | 29384 ft | 267 kts | 314° |
| 2026-05-09 02:01 | 41.41603 | -74.39731 | 30283 ft | 255 kts | 308° |
| 2026-05-09 02:01 | 41.42826 | -74.41405 | 30995 ft | 250 kts | 303° |
| 2026-05-09 02:02 | 41.43877 | -74.43226 | 31687 ft | 246 kts | 297° |
| 2026-05-09 02:02 | 41.44756 | -74.45157 | 32371 ft | 243 kts | 293° |
| 2026-05-09 02:02 | 41.45600 | -74.47102 | 33037 ft | 242 kts | 294° |
| 2026-05-09 02:02 | 41.46446 | -74.49040 | 33735 ft | 241 kts | 294° |
| 2026-05-09 02:03 | 41.47283 | -74.50975 | 34416 ft | 240 kts | 293° |
| 2026-05-09 02:03 | 41.48111 | -74.52897 | 35065 ft | 239 kts | 294° |
| 2026-05-09 02:03 | 41.48940 | -74.54816 | 35712 ft | 239 kts | 293° |
| 2026-05-09 02:03 | 41.49771 | -74.56740 | 36302 ft | 240 kts | 293° |
| 2026-05-09 02:04 | 41.50593 | -74.58644 | 36862 ft | 240 kts | 293° |
| 2026-05-09 02:04 | 41.51427 | -74.60579 | 37424 ft | 241 kts | 293° |
| 2026-05-09 02:04 | 41.52263 | -74.62515 | 37993 ft | 240 kts | 293° |
| 2026-05-09 02:04 | 41.53097 | -74.64449 | 38538 ft | 241 kts | 293° |
| 2026-05-09 02:05 | 41.53934 | -74.66391 | 39061 ft | 242 kts | 293° |
| 2026-05-09 02:05 | 41.54769 | -74.68340 | 39580 ft | 242 kts | 293° |
| 2026-05-09 02:05 | 41.55614 | -74.70297 | 39965 ft | 247 kts | 293° |
| 2026-05-09 02:05 | 41.56489 | -74.72351 | 39982 ft | 263 kts | 293° |
| 2026-05-09 02:06 | 41.57425 | -74.74534 | 39986 ft | 278 kts | 294° |
| 2026-05-09 02:06 | 41.58413 | -74.76830 | 39993 ft | 291 kts | 294° |
| 2026-05-09 02:06 | 41.59435 | -74.79194 | 39992 ft | 294 kts | 294° |
| 2026-05-09 02:07 | 41.61478 | -74.83967 | 39991 ft | 297 kts | 294° |
| 2026-05-09 02:07 | 41.62504 | -74.86369 | 39992 ft | 298 kts | 294° |
| 2026-05-09 02:07 | 41.63538 | -74.88789 | 39987 ft | 300 kts | 294° |
| 2026-05-09 02:08 | 41.65258 | -74.92823 | 39993 ft | 301 kts | 294° |
| 2026-05-09 02:08 | 41.67340 | -74.97705 | 39990 ft | 303 kts | 294° |
| 2026-05-09 02:09 | 41.69767 | -75.03409 | 39991 ft | 304 kts | 294° |
| 2026-05-09 02:09 | 41.71521 | -75.07538 | 39989 ft | 305 kts | 294° |
| 2026-05-09 02:10 | 41.73615 | -75.12478 | 39990 ft | 306 kts | 294° |
| 2026-05-09 02:10 | 41.75701 | -75.17407 | 39991 ft | 306 kts | 294° |
| 2026-05-09 02:11 | 41.77804 | -75.22381 | 39991 ft | 307 kts | 294° |
| 2026-05-09 02:11 | 41.79907 | -75.27364 | 39991 ft | 307 kts | 294° |
| 2026-05-09 02:12 | 41.82008 | -75.32357 | 39992 ft | 307 kts | 294° |
| 2026-05-09 02:12 | 41.84111 | -75.37358 | 39981 ft | 308 kts | 294° |
| 2026-05-09 02:13 | 41.86214 | -75.42366 | 39979 ft | 308 kts | 294° |
| 2026-05-09 02:13 | 41.88318 | -75.47387 | 39979 ft | 309 kts | 294° |
| 2026-05-09 02:14 | 41.90420 | -75.52414 | 39980 ft | 309 kts | 294° |
| 2026-05-09 02:14 | 41.92527 | -75.57460 | 39965 ft | 310 kts | 294° |
| 2026-05-09 02:15 | 41.94620 | -75.62478 | 39961 ft | 310 kts | 294° |
| 2026-05-09 02:15 | 41.96727 | -75.67540 | 39964 ft | 311 kts | 294° |
| 2026-05-09 02:16 | 41.98833 | -75.72610 | 39966 ft | 311 kts | 295° |
| 2026-05-09 02:16 | 42.00940 | -75.77696 | 39965 ft | 311 kts | 294° |
| 2026-05-09 02:17 | 42.03052 | -75.82787 | 39964 ft | 311 kts | 294° |
| 2026-05-09 02:17 | 42.05157 | -75.87884 | 39958 ft | 312 kts | 294° |
| 2026-05-09 02:18 | 42.07266 | -75.92991 | 39960 ft | 312 kts | 294° |
| 2026-05-09 02:18 | 42.09368 | -75.98100 | 39962 ft | 312 kts | 294° |
| 2026-05-09 02:19 | 42.11473 | -76.03214 | 39958 ft | 312 kts | 294° |
| 2026-05-09 02:19 | 42.13564 | -76.08309 | 39962 ft | 312 kts | 294° |
| 2026-05-09 02:20 | 42.15657 | -76.13438 | 39961 ft | 311 kts | 292° |
| 2026-05-09 02:20 | 42.17388 | -76.18763 | 39961 ft | 310 kts | 290° |
| 2026-05-09 02:21 | 42.19117 | -76.24096 | 39965 ft | 310 kts | 290° |
| 2026-05-09 02:21 | 42.20825 | -76.29446 | 39962 ft | 310 kts | 289° |
| 2026-05-09 02:22 | 42.22541 | -76.34795 | 39962 ft | 311 kts | 289° |
| 2026-05-09 02:22 | 42.24252 | -76.40145 | 39963 ft | 310 kts | 289° |
| 2026-05-09 02:23 | 42.25946 | -76.45466 | 39961 ft | 311 kts | 290° |
| 2026-05-09 02:23 | 42.27651 | -76.50822 | 39964 ft | 311 kts | 289° |
| 2026-05-09 02:24 | 42.29348 | -76.56179 | 39960 ft | 310 kts | 290° |
| 2026-05-09 02:24 | 42.31050 | -76.61536 | 39959 ft | 310 kts | 289° |
| 2026-05-09 02:24 | 42.31901 | -76.64229 | 39761 ft | 313 kts | 289° |
| 2026-05-09 02:25 | 42.32759 | -76.66939 | 39356 ft | 313 kts | 289° |
| 2026-05-09 02:25 | 42.33609 | -76.69630 | 38946 ft | 310 kts | 289° |
| 2026-05-09 02:25 | 42.34452 | -76.72296 | 38532 ft | 307 kts | 289° |
| 2026-05-09 02:25 | 42.35281 | -76.74940 | 38125 ft | 304 kts | 289° |
| 2026-05-09 02:26 | 42.36106 | -76.77555 | 37724 ft | 301 kts | 289° |
| 2026-05-09 02:26 | 42.36921 | -76.80145 | 37328 ft | 297 kts | 289° |
| 2026-05-09 02:26 | 42.37729 | -76.82709 | 36921 ft | 295 kts | 289° |
| 2026-05-09 02:26 | 42.38528 | -76.85258 | 36540 ft | 293 kts | 289° |
| 2026-05-09 02:27 | 42.39319 | -76.87787 | 36151 ft | 290 kts | 289° |
| 2026-05-09 02:27 | 42.40105 | -76.90293 | 35766 ft | 291 kts | 289° |
| 2026-05-09 02:27 | 42.40900 | -76.92846 | 35375 ft | 297 kts | 289° |
| 2026-05-09 02:27 | 42.41717 | -76.95458 | 34976 ft | 306 kts | 289° |
| 2026-05-09 02:28 | 42.42561 | -76.98160 | 34556 ft | 315 kts | 289° |
| 2026-05-09 02:28 | 42.43410 | -77.00869 | 34147 ft | 320 kts | 289° |
| 2026-05-09 02:28 | 42.44279 | -77.03666 | 33773 ft | 324 kts | 289° |
| 2026-05-09 02:28 | 42.45155 | -77.06475 | 33500 ft | 325 kts | 289° |
| 2026-05-09 02:29 | 42.46032 | -77.09295 | 33220 ft | 325 kts | 289° |
| 2026-05-09 02:29 | 42.46910 | -77.12118 | 32935 ft | 325 kts | 289° |
| 2026-05-09 02:29 | 42.47788 | -77.14946 | 32650 ft | 325 kts | 289° |
| 2026-05-09 02:29 | 42.48660 | -77.17769 | 32366 ft | 325 kts | 289° |
| 2026-05-09 02:30 | 42.49537 | -77.20593 | 32079 ft | 324 kts | 289° |
| 2026-05-09 02:30 | 42.50405 | -77.23411 | 31799 ft | 324 kts | 289° |
| 2026-05-09 02:30 | 42.51280 | -77.26232 | 31510 ft | 324 kts | 289° |
| 2026-05-09 02:30 | 42.52146 | -77.29043 | 31229 ft | 323 kts | 289° |
| 2026-05-09 02:31 | 42.53013 | -77.31856 | 30946 ft | 322 kts | 289° |
| 2026-05-09 02:31 | 42.53875 | -77.34659 | 30664 ft | 321 kts | 289° |
| 2026-05-09 02:31 | 42.54728 | -77.37409 | 30392 ft | 320 kts | 289° |
| 2026-05-09 02:31 | 42.55577 | -77.40201 | 30091 ft | 320 kts | 289° |
| 2026-05-09 02:32 | 42.56432 | -77.42980 | 29953 ft | 315 kts | 289° |
| 2026-05-09 02:32 | 42.58078 | -77.48350 | 29948 ft | 302 kts | 289° |
| 2026-05-09 02:32 | 42.58878 | -77.50963 | 29945 ft | 298 kts | 289° |
| 2026-05-09 02:33 | 42.59672 | -77.53546 | 29943 ft | 295 kts | 289° |
| 2026-05-09 02:33 | 42.60448 | -77.56105 | 29940 ft | 292 kts | 289° |
| 2026-05-09 02:33 | 42.61228 | -77.58653 | 29937 ft | 291 kts | 289° |
| 2026-05-09 02:33 | 42.61998 | -77.61183 | 29936 ft | 289 kts | 289° |
| 2026-05-09 02:34 | 42.62764 | -77.63693 | 29938 ft | 287 kts | 289° |
| 2026-05-09 02:34 | 42.63521 | -77.66190 | 29937 ft | 286 kts | 289° |
| 2026-05-09 02:34 | 42.64280 | -77.68685 | 29934 ft | 285 kts | 289° |
| 2026-05-09 02:34 | 42.65036 | -77.71171 | 29934 ft | 285 kts | 289° |
| 2026-05-09 02:35 | 42.65795 | -77.73668 | 29683 ft | 290 kts | 288° |
| 2026-05-09 02:35 | 42.66544 | -77.76274 | 29185 ft | 301 kts | 288° |
| 2026-05-09 02:35 | 42.67297 | -77.78982 | 28626 ft | 312 kts | 288° |
| 2026-05-09 02:35 | 42.68074 | -77.81754 | 28015 ft | 314 kts | 288° |
| 2026-05-09 02:36 | 42.68858 | -77.84544 | 27386 ft | 319 kts | 288° |
| 2026-05-09 02:36 | 42.69650 | -77.87388 | 26744 ft | 325 kts | 288° |
| 2026-05-09 02:36 | 42.70458 | -77.90277 | 26101 ft | 328 kts | 288° |
| 2026-05-09 02:36 | 42.71268 | -77.93190 | 25461 ft | 331 kts | 288° |
| 2026-05-09 02:37 | 42.72088 | -77.96127 | 24816 ft | 333 kts | 288° |
| 2026-05-09 02:37 | 42.72904 | -77.99072 | 24248 ft | 333 kts | 288° |
| 2026-05-09 02:37 | 42.73718 | -78.01984 | 23952 ft | 326 kts | 288° |
| 2026-05-09 02:37 | 42.74506 | -78.04844 | 23663 ft | 321 kts | 288° |
| 2026-05-09 02:38 | 42.75292 | -78.07665 | 23384 ft | 317 kts | 288° |
| 2026-05-09 02:38 | 42.76049 | -78.10418 | 23113 ft | 313 kts | 288° |
| 2026-05-09 02:38 | 42.76817 | -78.13182 | 22839 ft | 311 kts | 288° |
| 2026-05-09 02:38 | 42.77573 | -78.15935 | 22568 ft | 309 kts | 288° |
| 2026-05-09 02:39 | 42.78332 | -78.18668 | 22299 ft | 307 kts | 288° |
| 2026-05-09 02:39 | 42.79077 | -78.21391 | 22033 ft | 306 kts | 288° |
| 2026-05-09 02:39 | 42.79827 | -78.24097 | 21767 ft | 305 kts | 288° |
| 2026-05-09 02:39 | 42.80565 | -78.26800 | 21501 ft | 304 kts | 288° |
| 2026-05-09 02:40 | 42.81309 | -78.29493 | 21235 ft | 304 kts | 288° |
| 2026-05-09 02:40 | 42.82048 | -78.32187 | 20976 ft | 302 kts | 288° |
| 2026-05-09 02:40 | 42.82778 | -78.34872 | 20708 ft | 302 kts | 288° |
| 2026-05-09 02:40 | 42.83514 | -78.37550 | 20439 ft | 302 kts | 288° |
| 2026-05-09 02:41 | 42.84249 | -78.40231 | 20180 ft | 302 kts | 288° |
| 2026-05-09 02:41 | 42.84979 | -78.42911 | 19916 ft | 302 kts | 288° |
| 2026-05-09 02:41 | 42.85711 | -78.45589 | 19647 ft | 302 kts | 288° |
| 2026-05-09 02:41 | 42.86439 | -78.48269 | 19382 ft | 301 kts | 288° |
| 2026-05-09 02:42 | 42.87162 | -78.50911 | 19122 ft | 301 kts | 288° |
| 2026-05-09 02:42 | 42.87887 | -78.53593 | 18861 ft | 301 kts | 288° |
| 2026-05-09 02:42 | 42.88620 | -78.56273 | 18616 ft | 301 kts | 288° |
| 2026-05-09 02:42 | 42.89339 | -78.58942 | 18393 ft | 300 kts | 288° |
| 2026-05-09 02:43 | 42.90067 | -78.61609 | 18144 ft | 300 kts | 288° |
| 2026-05-09 02:43 | 42.90783 | -78.64278 | 17882 ft | 300 kts | 288° |
| 2026-05-09 02:43 | 42.91512 | -78.66949 | 17621 ft | 300 kts | 288° |
| 2026-05-09 02:43 | 42.92227 | -78.69626 | 17376 ft | 300 kts | 288° |
| 2026-05-09 02:44 | 42.92979 | -78.72268 | 17130 ft | 299 kts | 292° |
| 2026-05-09 02:44 | 42.94195 | -78.74585 | 16861 ft | 305 kts | 310° |
| 2026-05-09 02:44 | 42.95901 | -78.76349 | 16598 ft | 314 kts | 324° |
| 2026-05-09 02:44 | 42.97834 | -78.77762 | 16355 ft | 314 kts | 324° |
| 2026-05-09 02:45 | 42.99736 | -78.79230 | 16117 ft | 314 kts | 324° |
| 2026-05-09 02:45 | 43.01650 | -78.80673 | 15881 ft | 315 kts | 324° |
| 2026-05-09 02:45 | 43.03564 | -78.82128 | 15647 ft | 315 kts | 324° |
| 2026-05-09 02:45 | 43.05457 | -78.83556 | 15417 ft | 315 kts | 325° |
| 2026-05-09 02:46 | 43.07372 | -78.85018 | 15183 ft | 315 kts | 325° |
| 2026-05-09 02:46 | 43.09288 | -78.86465 | 14949 ft | 315 kts | 325° |
| 2026-05-09 02:46 | 43.11202 | -78.87927 | 14716 ft | 314 kts | 325° |
| 2026-05-09 02:46 | 43.13116 | -78.89379 | 14484 ft | 314 kts | 325° |
| 2026-05-09 02:47 | 43.15025 | -78.90835 | 14264 ft | 314 kts | 325° |
| 2026-05-09 02:47 | 43.16932 | -78.92286 | 14052 ft | 313 kts | 325° |
| 2026-05-09 02:47 | 43.18844 | -78.93748 | 13730 ft | 316 kts | 325° |
| 2026-05-09 02:47 | 43.20779 | -78.95218 | 13379 ft | 319 kts | 326° |
| 2026-05-09 02:48 | 43.22723 | -78.96705 | 13017 ft | 319 kts | 326° |
| 2026-05-09 02:48 | 43.24633 | -78.98154 | 12667 ft | 309 kts | 326° |
| 2026-05-09 02:48 | 43.26481 | -78.99572 | 12327 ft | 301 kts | 326° |
| 2026-05-09 02:48 | 43.28293 | -79.00954 | 11996 ft | 294 kts | 326° |
| 2026-05-09 02:49 | 43.30066 | -79.02325 | 11670 ft | 291 kts | 326° |
| 2026-05-09 02:49 | 43.31828 | -79.03663 | 11348 ft | 288 kts | 326° |
| 2026-05-09 02:49 | 43.33569 | -79.04995 | 11034 ft | 285 kts | 326° |
| 2026-05-09 02:49 | 43.35276 | -79.06308 | 10722 ft | 279 kts | 326° |
| 2026-05-09 02:50 | 43.36949 | -79.07601 | 10417 ft | 273 kts | 326° |
| 2026-05-09 02:50 | 43.38575 | -79.08851 | 10120 ft | 271 kts | 326° |
| 2026-05-09 02:50 | 43.40228 | -79.10121 | 9820 ft | 273 kts | 327° |
| 2026-05-09 02:50 | 43.41890 | -79.11397 | 9517 ft | 274 kts | 327° |
| 2026-05-09 02:51 | 43.43561 | -79.12687 | 9208 ft | 276 kts | 327° |
| 2026-05-09 02:51 | 43.45247 | -79.13975 | 8898 ft | 277 kts | 327° |
| 2026-05-09 02:51 | 43.46924 | -79.15278 | 8592 ft | 276 kts | 327° |
| 2026-05-09 02:51 | 43.48603 | -79.16564 | 8286 ft | 276 kts | 327° |
| 2026-05-09 02:52 | 43.50270 | -79.17857 | 7981 ft | 275 kts | 327° |
| 2026-05-09 02:52 | 43.51936 | -79.19144 | 7674 ft | 274 kts | 328° |
| 2026-05-09 02:52 | 43.53603 | -79.20425 | 7372 ft | 274 kts | 327° |
| 2026-05-09 02:52 | 43.55268 | -79.21723 | 7067 ft | 274 kts | 327° |
| 2026-05-09 02:53 | 43.56936 | -79.23000 | 6763 ft | 273 kts | 327° |
| 2026-05-09 02:53 | 43.58582 | -79.24283 | 6462 ft | 270 kts | 327° |
| 2026-05-09 02:53 | 43.60223 | -79.25534 | 6163 ft | 269 kts | 328° |
| 2026-05-09 02:53 | 43.61860 | -79.26786 | 5867 ft | 268 kts | 328° |
| 2026-05-09 02:54 | 43.63494 | -79.28027 | 5567 ft | 268 kts | 328° |
| 2026-05-09 02:54 | 43.65122 | -79.29277 | 5274 ft | 267 kts | 327° |
| 2026-05-09 02:54 | 43.66200 | -79.30109 | 5073 ft | 267 kts | 328° |
| 2026-05-09 02:54 | 43.68344 | -79.31758 | 4681 ft | 266 kts | 327° |
| 2026-05-09 02:55 | 43.69964 | -79.33020 | 4387 ft | 267 kts | 328° |
| 2026-05-09 02:55 | 43.71583 | -79.34281 | 4105 ft | 267 kts | 327° |
| 2026-05-09 02:55 | 43.73188 | -79.35538 | 3975 ft | 262 kts | 328° |
| 2026-05-09 02:55 | 43.74259 | -79.36376 | 3809 ft | 262 kts | 328° |
| 2026-05-09 02:56 | 43.75840 | -79.37632 | 3558 ft | 263 kts | 328° |
| 2026-05-09 02:56 | 43.77429 | -79.38884 | 3307 ft | 263 kts | 328° |
| 2026-05-09 02:56 | 43.79016 | -79.40153 | 3056 ft | 264 kts | 328° |
| 2026-05-09 02:56 | 43.80569 | -79.41388 | 3015 ft | 259 kts | 328° |
| 2026-05-09 02:57 | 43.82142 | -79.42658 | 3016 ft | 261 kts | 327° |
| 2026-05-09 02:57 | 43.83422 | -79.44342 | 2999 ft | 252 kts | 297° |
| 2026-05-09 02:57 | 43.83719 | -79.46651 | 2999 ft | 245 kts | 260° |
| 2026-05-09 02:57 | 43.82934 | -79.48683 | 2999 ft | 242 kts | 223° |
| 2026-05-09 02:58 | 43.81435 | -79.49695 | 3001 ft | 242 kts | 197° |
| 2026-05-09 02:58 | 43.79883 | -79.50362 | 3001 ft | 219 kts | 201° |
| 2026-05-09 02:58 | 43.78549 | -79.51112 | 2993 ft | 195 kts | 205° |
| 2026-05-09 02:58 | 43.77460 | -79.51943 | 2896 ft | 168 kts | 216° |
| 2026-05-09 02:59 | 43.76629 | -79.53003 | 2681 ft | 156 kts | 225° |
| 2026-05-09 02:59 | 43.75922 | -79.54015 | 2489 ft | 134 kts | 225° |
| 2026-05-09 02:59 | 43.75350 | -79.54867 | 2312 ft | 111 kts | 225° |
| 2026-05-09 02:59 | 43.74842 | -79.55608 | 2111 ft | 104 kts | 224° |
| 2026-05-09 03:00 | 43.74355 | -79.56332 | 1927 ft | 102 kts | 225° |
| 2026-05-09 03:00 | 43.73878 | -79.57040 | 1810 ft | 101 kts | 223° |
| 2026-05-09 03:00 | 43.73396 | -79.57735 | 1685 ft | 103 kts | 223° |
| 2026-05-09 03:00 | 43.72900 | -79.58445 | 1568 ft | 103 kts | 224° |
| 2026-05-09 03:01 | 43.72407 | -79.59168 | 1436 ft | 104 kts | 223° |
| 2026-05-09 03:01 | 43.71907 | -79.59892 | 1310 ft | 104 kts | 224° |
| 2026-05-09 03:01 | 43.71406 | -79.60620 | 1176 ft | 105 kts | 223° |
| 2026-05-09 03:01 | 43.70905 | -79.61340 | 1026 ft | 102 kts | 224° |
| 2026-05-09 03:02 | 43.70427 | -79.62042 | 882 ft | 99 kts | 224° |
| 2026-05-09 03:02 | 43.69951 | -79.62730 | 755 ft | 100 kts | 225° |
| 2026-05-09 03:02 | 43.69471 | -79.63429 | 626 ft | 101 kts | 224° |
| 2026-05-09 03:02 | 43.69002 | -79.64099 | 562 ft | 88 kts | 224° |
| 2026-05-09 03:03 | 43.68659 | -79.64601 | 555 ft | 44 kts | 227° |
| 2026-05-09 03:03 | 43.68545 | -79.64772 | 557 ft | 18 kts | 227° |
| 2026-05-09 03:03 | 43.68541 | -79.64869 | 558 ft | 12 kts | 314° |
| 2026-05-09 03:03 | 43.68606 | -79.64955 | 560 ft | 8 kts | 316° |
| 2026-05-09 03:04 | 43.68609 | -79.64959 | 556 ft | 0 kts | 317° |
| 2026-05-09 03:04 | 43.68649 | -79.64990 | 563 ft | 10 kts | 346° |
| 2026-05-09 03:04 | 43.68720 | -79.65028 | 557 ft | 12 kts | 0° |
| 2026-05-09 03:04 | 43.68800 | -79.65013 | 558 ft | 10 kts | 39° |
| 2026-05-09 03:05 | 43.68856 | -79.64932 | 557 ft | 14 kts | 47° |
| 2026-05-09 03:05 | 43.68924 | -79.64833 | 557 ft | 10 kts | 46° |
| 2026-05-09 03:05 | 43.68977 | -79.64813 | 558 ft | 9 kts | 321° |
| 2026-05-09 03:05 | 43.69033 | -79.64892 | 556 ft | 7 kts | 319° |
| 2026-05-09 03:06 | 43.69034 | -79.64893 | 556 ft | 0 kts | 318° |
| 2026-05-09 03:06 | 43.69035 | -79.64893 | 556 ft | 2 kts | 318° |
| 2026-05-09 03:06 | 43.69135 | -79.65021 | 556 ft | 23 kts | 316° |
| 2026-05-09 03:07 | 43.69239 | -79.65133 | 556 ft | 12 kts | 341° |
| 2026-05-09 03:07 | 43.69286 | -79.65101 | 560 ft | 6 kts | 12° |
| 2026-05-09 03:07 | 43.69298 | -79.65122 | 556 ft | 0 kts | 240° |